createdAt,value
2022-10-22T00:04:08.214Z,56.60
2022-10-22T00:09:11.816Z,56.60
2022-10-22T00:14:15.688Z,56.60
2022-10-22T00:19:20.047Z,56.60
2022-10-22T00:24:23.007Z,56.60
2022-10-22T00:29:25.971Z,56.60
2022-10-22T00:34:30.282Z,56.60
2022-10-22T00:39:33.538Z,57.10
2022-10-22T00:45:15.101Z,56.60
2022-10-22T00:50:24.464Z,56.60
2022-10-22T00:55:28.973Z,56.60
2022-10-22T01:00:32.364Z,56.60
2022-10-22T01:05:44.008Z,56.60
2022-10-22T01:10:56.319Z,56.60
2022-10-22T01:16:07.753Z,56.60
2022-10-22T01:21:20.925Z,56.60
2022-10-22T01:26:29.448Z,56.60
2022-10-22T01:31:39.335Z,57.10
2022-10-22T01:36:42.783Z,56.60
2022-10-22T01:41:46.628Z,56.60
2022-10-22T01:46:54.614Z,56.60
2022-10-22T01:52:07.311Z,56.60
2022-10-22T01:57:20.738Z,56.60
2022-10-22T02:02:35.553Z,56.60
2022-10-22T02:07:44.270Z,56.60
2022-10-22T02:12:51.935Z,57.10
2022-10-22T02:17:59.414Z,56.60
2022-10-22T02:23:02.830Z,56.60
2022-10-22T02:28:14.342Z,56.60
2022-10-22T02:33:23.152Z,56.60
2022-10-22T02:38:28.267Z,56.60
2022-10-22T02:43:31.468Z,56.60
2022-10-22T02:48:35.763Z,57.10
2022-10-22T02:53:38.714Z,56.60
2022-10-22T02:58:41.718Z,56.50
2022-10-22T03:03:46.045Z,56.50
2022-10-22T03:08:49.506Z,57.10
2022-10-22T03:13:52.510Z,56.50
2022-10-22T03:18:56.815Z,56.60
2022-10-22T03:24:02.485Z,56.50
2022-10-22T03:29:06.185Z,56.50
2022-10-22T03:34:11.959Z,56.50
2022-10-22T03:39:17.175Z,56.50
2022-10-22T03:44:21.067Z,56.50
2022-10-22T03:49:25.440Z,56.50
2022-10-22T03:54:28.431Z,56.50
2022-10-22T03:59:35.867Z,56.50
2022-10-22T04:04:40.411Z,56.50
2022-10-22T04:09:43.547Z,57.00
2022-10-22T04:14:46.491Z,56.50
2022-10-22T04:19:50.799Z,56.50
2022-10-22T04:24:53.749Z,56.50
2022-10-22T04:29:56.694Z,56.50
2022-10-22T04:35:00.991Z,56.50
2022-10-22T04:40:04.006Z,57.10
2022-10-22T04:45:07.677Z,56.50
2022-10-22T04:50:12.098Z,56.50
2022-10-22T04:55:15.038Z,56.50
2022-10-22T05:00:18.338Z,56.50
2022-10-22T05:05:22.644Z,56.50
2022-10-22T05:10:25.584Z,56.50
2022-10-22T05:15:28.531Z,56.50
2022-10-22T05:20:32.799Z,56.50
2022-10-22T05:25:38.752Z,56.50
2022-10-22T05:30:41.687Z,56.50
2022-10-22T05:35:46.882Z,56.50
2022-10-22T05:40:50.168Z,57.10
2022-10-22T05:45:53.111Z,56.50
2022-10-22T05:50:57.500Z,56.50
2022-10-22T05:56:04.684Z,56.60
2022-10-22T06:01:09.432Z,56.60
2022-10-22T06:06:20.735Z,56.60
2022-10-22T06:11:24.685Z,56.60
2022-10-22T06:16:29.948Z,56.60
2022-10-22T06:21:34.570Z,57.20
2022-10-22T06:26:37.716Z,56.60
2022-10-22T06:31:40.663Z,56.60
2022-10-22T06:36:45.831Z,56.60
2022-10-22T06:41:48.783Z,57.20
2022-10-22T06:46:52.761Z,56.60
2022-10-22T06:51:57.102Z,56.60
2022-10-22T06:57:00.036Z,56.60
2022-10-22T07:02:02.965Z,57.20
2022-10-22T07:07:07.277Z,56.60
2022-10-22T07:12:10.226Z,56.60
2022-10-22T07:17:13.152Z,57.10
2022-10-22T07:22:17.452Z,56.60
2022-10-22T07:27:20.436Z,56.50
2022-10-22T07:32:23.990Z,56.50
2022-10-22T07:37:28.353Z,56.50
2022-10-22T07:42:31.308Z,56.50
2022-10-22T07:47:35.090Z,57.10
2022-10-22T07:52:39.890Z,56.50
2022-10-22T07:57:43.037Z,56.50
2022-10-22T08:02:46.015Z,56.40
2022-10-22T08:07:50.351Z,56.40
2022-10-22T08:12:53.294Z,56.40
2022-10-22T08:17:56.247Z,56.30
2022-10-22T08:23:00.555Z,56.30
2022-10-22T08:28:03.499Z,56.30
2022-10-22T08:33:06.551Z,56.30
2022-10-22T08:38:10.859Z,56.20
2022-10-22T08:43:38.567Z,56.10
2022-10-22T08:48:48.213Z,56.10
2022-10-22T08:54:09.626Z,56.00
2022-10-22T08:59:18.428Z,56.00
2022-10-22T09:04:26.216Z,56.60
2022-10-22T09:09:35.660Z,56.00
2022-10-22T09:14:38.609Z,56.00
2022-10-22T09:19:54.266Z,55.90
2022-10-22T09:25:03.022Z,56.50
2022-10-22T09:30:07.126Z,55.90
2022-10-22T09:35:12.692Z,55.80
2022-10-22T09:40:18.115Z,55.70
2022-10-22T09:45:24.274Z,55.60
2022-10-22T09:50:31.148Z,55.50
2022-10-22T09:55:35.466Z,55.50
2022-10-22T10:00:47.156Z,55.50
2022-10-22T10:05:54.523Z,55.50
2022-10-22T10:11:03.826Z,55.50
2022-10-22T10:16:16.612Z,55.40
2022-10-22T10:21:27.807Z,55.40
2022-10-22T10:26:36.793Z,55.40
2022-10-22T10:31:53.618Z,55.30
2022-10-22T10:37:07.679Z,55.30
2022-10-22T10:42:23.787Z,55.30
2022-10-22T10:47:43.193Z,55.30
2022-10-22T10:52:53.710Z,55.20
2022-10-22T10:58:06.197Z,55.20
2022-10-22T11:03:35.771Z,55.20
2022-10-22T11:08:41.840Z,55.20
2022-10-22T11:13:53.883Z,55.20
2022-10-22T11:19:03.523Z,55.20
2022-10-22T11:24:15.213Z,55.20
2022-10-22T11:29:24.110Z,55.20
2022-10-22T11:34:34.995Z,55.20
2022-10-22T11:39:43.824Z,55.20
2022-10-22T11:50:04.998Z,55.70
2022-10-22T11:55:34.243Z,55.20
2022-10-22T12:00:48.931Z,55.30
2022-10-22T12:06:08.407Z,55.30
2022-10-22T12:11:21.186Z,55.40
2022-10-22T12:16:32.383Z,55.30
2022-10-22T12:21:50.954Z,56.00
2022-10-22T12:26:53.903Z,55.30
2022-10-22T12:31:58.207Z,55.30
2022-10-22T12:37:05.579Z,55.30
2022-10-22T12:42:13.526Z,55.30
2022-10-22T12:47:19.086Z,55.40
2022-10-22T12:52:25.779Z,55.40
2022-10-22T12:57:28.795Z,55.30
2022-10-22T13:02:33.127Z,55.30
2022-10-22T13:07:40.664Z,55.30
2022-10-22T13:12:56.592Z,55.30
2022-10-22T13:18:03.706Z,55.30
2022-10-22T13:23:07.362Z,55.30
2022-10-22T13:28:21.834Z,55.30
2022-10-22T13:33:27.800Z,55.30
2022-10-22T13:38:30.982Z,55.30
2022-10-22T13:43:35.275Z,55.30
2022-10-22T13:48:38.354Z,55.30
2022-10-22T13:53:41.388Z,55.30
2022-10-22T13:58:46.715Z,55.30
2022-10-22T14:03:51.191Z,55.40
2022-10-22T14:08:58.388Z,55.30
2022-10-22T14:14:03.484Z,55.30
2022-10-22T14:19:11.363Z,55.40
2022-10-22T14:24:14.303Z,55.40
2022-10-22T14:29:18.662Z,55.90
2022-10-22T14:34:21.623Z,55.50
2022-10-22T14:39:24.587Z,55.50
2022-10-22T14:44:28.887Z,56.00
2022-10-22T14:49:31.897Z,56.10
2022-10-22T14:54:35.306Z,55.60
2022-10-22T14:59:39.664Z,55.60
2022-10-22T15:04:42.765Z,55.60
2022-10-22T15:09:45.692Z,55.60
2022-10-22T15:14:50.162Z,55.60
2022-10-22T15:19:53.387Z,55.60
2022-10-22T15:24:56.340Z,56.20
2022-10-22T15:30:00.641Z,55.70
2022-10-22T15:35:05.722Z,55.70
2022-10-22T15:40:09.767Z,55.70
2022-10-22T15:45:14.167Z,55.70
2022-10-22T15:50:17.355Z,56.30
2022-10-22T15:55:20.303Z,55.70
2022-10-22T16:00:25.088Z,55.70
2022-10-22T16:05:28.517Z,55.80
2022-10-22T16:10:31.465Z,55.80
2022-10-22T16:15:36.464Z,55.80
2022-10-22T16:20:40.538Z,55.80
2022-10-22T16:25:44.119Z,55.80
2022-10-22T16:30:48.416Z,55.80
2022-10-22T16:35:51.338Z,55.90
2022-10-22T16:40:54.292Z,55.90
2022-10-22T16:45:58.597Z,55.90
2022-10-22T16:51:06.074Z,55.90
2022-10-22T16:56:10.590Z,55.90
2022-10-22T17:01:17.913Z,55.90
2022-10-22T17:06:21.306Z,55.90
2022-10-22T17:11:25.687Z,55.90
2022-10-22T17:16:30.314Z,55.90
2022-10-22T17:21:33.885Z,56.00
2022-10-22T17:26:37.419Z,56.00
2022-10-22T17:31:42.182Z,56.00
2022-10-22T17:36:45.514Z,56.00
2022-10-22T17:41:49.001Z,56.10
2022-10-22T17:46:53.976Z,56.00
2022-10-22T17:51:56.969Z,56.10
2022-10-22T17:56:59.923Z,56.10
2022-10-22T18:02:04.306Z,56.10
2022-10-22T18:07:07.322Z,56.10
2022-10-22T18:12:11.332Z,56.10
2022-10-22T18:17:15.714Z,56.10
2022-10-22T18:22:18.676Z,56.10
2022-10-22T18:27:21.607Z,56.20
2022-10-22T18:32:25.913Z,56.10
2022-10-22T18:37:28.880Z,56.10
2022-10-22T18:42:33.674Z,56.80
2022-10-22T18:47:42.418Z,56.10
2022-10-22T18:52:45.359Z,56.20
2022-10-22T18:57:48.288Z,56.20
2022-10-22T19:02:52.593Z,56.20
2022-10-22T19:07:55.538Z,56.20
2022-10-22T19:12:58.458Z,56.20
2022-10-22T19:18:02.779Z,56.20
2022-10-22T19:23:05.963Z,56.20
2022-10-22T19:28:08.915Z,56.20
2022-10-22T19:33:13.235Z,56.20
2022-10-22T19:38:16.244Z,56.20
2022-10-22T19:43:19.198Z,56.80
2022-10-22T19:48:23.494Z,56.80
2022-10-22T19:53:26.515Z,56.80
2022-10-22T19:58:29.679Z,56.80
2022-10-22T20:03:34.363Z,56.20
2022-10-22T20:08:38.804Z,56.20
2022-10-22T20:13:42.841Z,56.50
2022-10-22T20:18:48.824Z,56.20
2022-10-22T20:23:54.327Z,56.20
2022-10-22T20:28:58.469Z,56.20
2022-10-22T20:34:03.443Z,56.20
2022-10-22T20:39:08.435Z,56.20
2022-10-22T20:44:15.105Z,56.20
2022-10-22T20:49:20.683Z,56.20
2022-10-22T20:54:23.646Z,56.20
2022-10-22T20:59:32.539Z,56.20
2022-10-22T21:04:36.875Z,56.20
2022-10-22T21:09:39.859Z,56.20
2022-10-22T21:14:42.800Z,56.10
2022-10-22T21:19:47.101Z,56.20
2022-10-22T21:24:50.046Z,56.20
2022-10-22T21:29:52.991Z,56.10
2022-10-22T21:34:57.294Z,56.10
2022-10-22T21:40:01.266Z,56.20
2022-10-22T21:45:06.170Z,56.10
2022-10-22T21:50:13.353Z,56.10
2022-10-22T21:55:16.399Z,56.10
2022-10-22T22:00:22.390Z,56.10
2022-10-22T22:05:26.822Z,56.10
2022-10-22T22:10:31.150Z,56.10
2022-10-22T22:15:35.118Z,56.60
2022-10-22T22:20:39.428Z,56.10
2022-10-22T22:25:42.379Z,56.00
2022-10-22T22:30:45.423Z,56.00
2022-10-22T22:35:49.845Z,56.00
2022-10-22T22:40:52.782Z,56.10
2022-10-22T22:46:00.783Z,56.00
2022-10-22T22:51:06.374Z,56.00
2022-10-22T22:56:11.489Z,56.10
2022-10-22T23:01:17.507Z,56.00
2022-10-22T23:06:22.739Z,56.00
2022-10-22T23:11:27.711Z,56.00
2022-10-22T23:16:32.616Z,56.00
2022-10-22T23:21:38.867Z,55.90
2022-10-22T23:26:43.646Z,56.00
2022-10-22T23:31:48.426Z,56.00
2022-10-22T23:36:53.497Z,56.00
2022-10-22T23:41:56.896Z,56.00
2022-10-22T23:46:59.853Z,55.90
2022-10-22T23:52:04.218Z,56.00
2022-10-22T23:57:07.153Z,56.00
